createdAt,value
2023-06-23T00:02:48.612Z,4.32
2023-06-23T00:07:50.761Z,3.58
2023-06-23T00:12:52.853Z,4.00
2023-06-23T00:17:55.139Z,3.97
2023-06-23T00:22:57.256Z,3.00
2023-06-23T00:28:01.496Z,3.28
2023-06-23T00:33:04.430Z,3.67
2023-06-23T00:38:06.634Z,3.83
2023-06-23T00:43:09.075Z,4.47
2023-06-23T00:48:15.439Z,3.30
2023-06-23T00:53:18.275Z,3.55
2023-06-23T00:58:20.478Z,4.53
2023-06-23T01:03:22.719Z,4.20
2023-06-23T01:08:43.435Z,3.85
2023-06-23T01:14:14.556Z,4.80
2023-06-23T01:19:33.911Z,4.95
2023-06-23T01:24:48.325Z,5.18
2023-06-23T01:29:54.220Z,4.03
2023-06-23T01:35:04.827Z,4.82
2023-06-23T01:40:13.805Z,4.57
2023-06-23T01:45:17.572Z,4.43
2023-06-23T01:50:22.427Z,4.85
2023-06-23T01:55:26.148Z,5.30
2023-06-23T02:00:29.741Z,4.45
2023-06-23T02:05:34.728Z,4.72
2023-06-23T02:10:38.332Z,4.13
2023-06-23T02:15:43.727Z,4.25
2023-06-23T02:20:47.127Z,5.20
2023-06-23T02:25:50.226Z,6.15
2023-06-23T02:30:53.098Z,6.20
2023-06-23T02:35:58.805Z,6.90
2023-06-23T02:41:06.758Z,8.25
2023-06-23T02:46:11.969Z,7.25
2023-06-23T02:51:17.637Z,8.98
2023-06-23T02:56:23.240Z,7.65
2023-06-23T03:01:28.203Z,7.32
2023-06-23T03:06:35.732Z,8.15
2023-06-23T03:11:38.543Z,7.18
2023-06-23T03:16:49.454Z,6.10
2023-06-23T03:22:04.147Z,7.65
2023-06-23T03:27:10.993Z,8.73
2023-06-23T03:32:19.295Z,7.22
2023-06-23T03:37:24.819Z,9.32
2023-06-23T03:42:28.082Z,10.27
2023-06-23T03:47:32.638Z,9.85
2023-06-23T03:52:37.576Z,8.55
2023-06-23T03:57:41.504Z,9.50
2023-06-23T04:02:45.973Z,8.85
2023-06-23T04:07:51.215Z,9.63
2023-06-23T04:12:54.821Z,8.07
2023-06-23T04:17:59.765Z,9.80
2023-06-23T04:23:05.671Z,8.05
2023-06-23T04:28:12.749Z,7.53
2023-06-23T04:33:14.926Z,9.93
2023-06-23T04:38:22.819Z,9.30
2023-06-23T04:43:47.198Z,8.63
2023-06-23T04:48:53.046Z,8.02
2023-06-23T04:53:59.469Z,7.78
2023-06-23T04:59:06.225Z,7.50
2023-06-23T05:04:10.148Z,7.47
2023-06-23T05:09:15.620Z,6.30
2023-06-23T05:14:20.427Z,6.82
2023-06-23T05:19:24.125Z,5.07
2023-06-23T05:24:28.584Z,5.88
2023-06-23T05:29:35.059Z,6.97
2023-06-23T05:34:38.094Z,6.50
2023-06-23T05:39:41.702Z,5.60
2023-06-23T05:44:43.982Z,5.25
2023-06-23T05:49:48.518Z,4.43
2023-06-23T05:54:54.734Z,5.03
2023-06-23T06:00:11.601Z,5.10
2023-06-23T06:05:19.623Z,4.80
2023-06-23T06:10:24.565Z,5.30
2023-06-23T06:15:27.864Z,4.28
2023-06-23T06:20:32.601Z,4.40
2023-06-23T06:25:36.732Z,3.25
2023-06-23T06:30:40.905Z,3.65
2023-06-23T06:35:45.424Z,3.97
2023-06-23T06:40:50.850Z,2.50
2023-06-23T06:45:54.010Z,2.10
2023-06-23T06:50:58.196Z,1.60
2023-06-23T06:56:00.939Z,1.77
2023-06-23T07:01:04.527Z,1.58
2023-06-23T07:06:07.731Z,1.40
2023-06-23T07:11:09.908Z,1.50
2023-06-23T07:16:12.027Z,1.65
2023-06-23T07:21:14.172Z,1.33
2023-06-23T07:26:16.364Z,2.47
2023-06-23T07:31:18.649Z,1.80
2023-06-23T07:36:20.783Z,2.28
2023-06-23T07:41:23.063Z,2.22
2023-06-23T07:46:25.322Z,2.88
2023-06-23T07:51:28.012Z,1.90
2023-06-23T07:56:30.214Z,2.08
2023-06-23T08:01:32.631Z,2.08
2023-06-23T08:06:34.757Z,1.80
2023-06-23T08:11:36.988Z,2.50
2023-06-23T08:16:39.384Z,2.03
2023-06-23T08:21:41.552Z,1.70
2023-06-23T08:26:43.775Z,2.10
2023-06-23T08:31:46.135Z,1.30
2023-06-23T08:36:48.443Z,2.03
2023-06-23T08:41:51.505Z,1.67
2023-06-23T08:47:06.243Z,1.73
2023-06-23T08:52:12.671Z,1.23
2023-06-23T08:57:15.504Z,1.48
2023-06-23T09:02:17.774Z,1.50
2023-06-23T09:07:20.101Z,1.30
2023-06-23T09:12:23.124Z,1.25
2023-06-23T09:17:26.422Z,1.15
2023-06-23T09:22:29.861Z,1.05
2023-06-23T09:27:44.237Z,1.30
2023-06-23T09:32:47.203Z,1.30
2023-06-23T09:37:49.596Z,1.13
2023-06-23T09:43:01.024Z,1.30
2023-06-23T09:48:03.383Z,1.00
2023-06-23T09:53:05.665Z,1.48
2023-06-23T09:58:11.877Z,1.20
2023-06-23T10:03:14.240Z,1.02
2023-06-23T10:08:16.346Z,1.50
2023-06-23T10:13:19.162Z,1.23
2023-06-23T10:18:21.806Z,1.75
2023-06-23T10:23:26.589Z,1.58
2023-06-23T10:28:30.948Z,1.25
2023-06-23T10:33:37.347Z,1.60
2023-06-23T10:38:45.471Z,1.25
2023-06-23T10:43:51.714Z,1.30
2023-06-23T10:48:54.676Z,2.40
2023-06-23T10:53:59.059Z,1.38
2023-06-23T10:59:17.482Z,1.30
2023-06-23T11:04:33.883Z,0.90
2023-06-23T11:09:53.799Z,1.33
2023-06-23T11:15:05.013Z,1.15
2023-06-23T11:20:11.959Z,1.00
2023-06-23T11:25:27.959Z,1.58
2023-06-23T11:30:30.177Z,1.48
2023-06-23T11:35:34.717Z,1.40
2023-06-23T11:40:37.689Z,1.17
2023-06-23T11:45:44.871Z,1.25
2023-06-23T11:50:47.052Z,1.50
2023-06-23T11:55:53.071Z,1.50
2023-06-23T12:00:55.255Z,1.33
2023-06-23T12:05:57.625Z,1.30
2023-06-23T12:10:59.857Z,1.90
2023-06-23T12:16:02.021Z,1.63
2023-06-23T12:21:05.239Z,1.73
2023-06-23T12:26:08.688Z,1.23
2023-06-23T12:31:10.981Z,1.35
2023-06-23T12:36:20.158Z,1.30
2023-06-23T12:41:25.270Z,1.33
2023-06-23T12:46:29.852Z,1.00
2023-06-23T12:51:36.800Z,1.30
2023-06-23T12:56:39.004Z,1.70
2023-06-23T13:01:41.940Z,1.67
2023-06-23T13:06:44.189Z,2.80
2023-06-23T13:11:46.776Z,2.30
2023-06-23T13:16:49.085Z,2.50
2023-06-23T13:21:52.993Z,2.10
2023-06-23T13:26:55.165Z,2.15
2023-06-23T13:31:58.827Z,2.28
2023-06-23T13:37:01.144Z,2.30
2023-06-23T13:42:03.641Z,2.05
2023-06-23T13:47:06.196Z,1.67
2023-06-23T13:52:08.728Z,2.00
2023-06-23T13:57:11.734Z,1.52
2023-06-23T14:02:14.016Z,2.58
2023-06-23T14:07:16.337Z,1.90
2023-06-23T14:12:18.627Z,2.22
2023-06-23T14:17:20.837Z,1.98
2023-06-23T14:22:24.531Z,2.20
2023-06-23T14:27:26.668Z,2.28
2023-06-23T14:32:31.266Z,2.08
2023-06-23T14:37:33.529Z,2.00
2023-06-23T14:42:35.677Z,2.50
2023-06-23T14:47:38.050Z,2.10
2023-06-23T14:52:42.534Z,1.95
2023-06-23T14:57:45.005Z,2.20
2023-06-23T15:02:47.337Z,1.77
2023-06-23T15:07:51.988Z,2.85
2023-06-23T15:12:54.200Z,1.80
2023-06-23T15:17:56.676Z,1.85
2023-06-23T15:23:02.875Z,2.13
2023-06-23T15:28:09.383Z,2.03
2023-06-23T15:33:11.630Z,2.47
2023-06-23T15:38:16.904Z,1.85
2023-06-23T15:43:20.918Z,2.83
2023-06-23T15:48:23.324Z,2.15
2023-06-23T15:53:25.526Z,1.95
2023-06-23T15:58:27.640Z,1.70
2023-06-23T16:03:29.988Z,2.53
2023-06-23T16:08:32.399Z,1.42
2023-06-23T16:13:34.535Z,1.70
2023-06-23T16:18:37.183Z,2.28
2023-06-23T16:23:40.133Z,2.92
2023-06-23T16:28:42.387Z,1.88
2023-06-23T16:33:44.842Z,1.38
2023-06-23T16:38:50.142Z,1.75
2023-06-23T16:44:00.015Z,2.10
2023-06-23T16:49:05.227Z,1.52
2023-06-23T16:54:07.366Z,1.67
2023-06-23T16:59:09.550Z,1.90
2023-06-23T17:09:36.538Z,1.80
2023-06-23T17:14:38.705Z,1.95
2023-06-23T17:19:40.841Z,1.85
2023-06-23T17:24:46.636Z,1.98
2023-06-23T17:29:48.785Z,1.90
2023-06-23T17:34:50.980Z,1.70
2023-06-23T17:39:54.077Z,2.15
2023-06-23T17:44:56.258Z,2.05
2023-06-23T17:49:58.470Z,2.83
2023-06-23T17:55:10.064Z,1.77
2023-06-23T18:00:12.939Z,1.80
2023-06-23T18:05:18.029Z,1.65
2023-06-23T18:15:26.788Z,2.28
2023-06-23T18:20:33.228Z,1.90
2023-06-23T18:25:36.108Z,2.38
2023-06-23T18:30:42.136Z,2.63
2023-06-23T18:36:10.560Z,2.38
2023-06-23T18:41:15.780Z,2.17
2023-06-23T18:46:17.950Z,2.17
2023-06-23T18:51:20.085Z,1.80
2023-06-23T18:56:22.594Z,2.55
2023-06-23T19:01:25.421Z,2.58
2023-06-23T19:06:30.300Z,2.53
2023-06-23T19:11:32.513Z,2.28
2023-06-23T19:16:35.174Z,2.38
2023-06-23T19:21:37.297Z,2.78
2023-06-23T19:26:39.421Z,2.40
2023-06-23T19:31:41.695Z,2.65
2023-06-23T19:36:44.968Z,2.75
2023-06-23T19:41:47.265Z,2.53
2023-06-23T19:46:49.438Z,2.40
2023-06-23T19:51:52.022Z,2.85
2023-06-23T19:56:54.203Z,2.95
2023-06-23T20:01:56.396Z,2.78
2023-06-23T20:06:58.944Z,2.60
2023-06-23T20:12:01.104Z,3.15
2023-06-23T20:17:04.294Z,3.00
2023-06-23T20:22:07.936Z,2.78
2023-06-23T20:27:10.101Z,3.00
2023-06-23T20:32:12.838Z,4.20
2023-06-23T20:37:15.011Z,4.07
2023-06-23T20:42:17.197Z,5.38
2023-06-23T20:47:20.238Z,5.32
2023-06-23T20:52:22.492Z,4.95
2023-06-23T20:57:24.658Z,3.63
2023-06-23T21:02:26.934Z,3.00
2023-06-23T21:07:29.145Z,3.53
2023-06-23T21:12:32.468Z,3.45
2023-06-23T21:17:34.810Z,4.22
2023-06-23T21:22:37.130Z,3.53
2023-06-23T21:27:39.280Z,4.15
2023-06-23T21:32:41.541Z,4.18
2023-06-23T21:37:46.379Z,3.78
2023-06-23T21:42:48.885Z,3.67
2023-06-23T21:47:51.244Z,4.35
2023-06-23T21:52:53.463Z,4.38
2023-06-23T21:57:55.561Z,4.00
2023-06-23T22:02:57.799Z,4.03
2023-06-23T22:08:00.071Z,4.35
2023-06-23T22:13:03.371Z,3.33
2023-06-23T22:18:05.561Z,3.22
2023-06-23T22:23:07.724Z,3.80
2023-06-23T22:28:09.924Z,3.45
2023-06-23T22:33:12.073Z,4.22
2023-06-23T22:38:15.117Z,4.70
2023-06-23T22:43:17.262Z,4.03
2023-06-23T22:48:19.395Z,5.63
2023-06-23T22:53:21.925Z,4.50
2023-06-23T22:58:24.098Z,4.75
2023-06-23T23:03:26.272Z,3.60
2023-06-23T23:08:28.376Z,4.10
2023-06-23T23:13:30.555Z,5.28
2023-06-23T23:18:33.174Z,3.92
2023-06-23T23:23:35.425Z,4.28
2023-06-23T23:28:37.618Z,4.40
2023-06-23T23:33:40.882Z,4.82
2023-06-23T23:38:43.008Z,3.85
2023-06-23T23:43:45.408Z,4.53
2023-06-23T23:48:47.943Z,3.72
2023-06-23T23:53:50.043Z,4.43
2023-06-23T23:58:52.394Z,4.20
